ADDS METAR Data

Data at: 0527 UTC 20 Sep 2017

METAR for:KORD (Chicago/O'Hare Intl, IL, US)
Text:KORD 200451Z 09005KT 8SM CLR 19/17 A2992 RMK AO2 SLP127 T01940167
Temperature: 19.4°C ( 67°F)
Dewpoint: 16.7°C ( 62°F) [RH = 84%]
Pressure (altimeter):29.92 inches Hg (1013.3 mb) [Sea level pressure: 1012.7 mb]
Winds:from the E (90 degrees) at 6 MPH (5 knots; 2.6 m/s)
Visibility: 8 sm ( 13 km)
Ceiling:at least 12,000 feet AGL
Clouds:sky clear below 12,000 feet AGL